Time;durP1;ratioP1;P1;durP2;ratioP2;P2;SDS_P1;SDS_P2;PMS_P1;PMS_P2;Temp;Humidity;BMP_temperature;BMP_pressure;BME280_temperature;BME280_humidity;BME280_pressure;Samples;Min_cycle;Max_cycle;Signal;HPM_P1;HPM_P2
2023/08/17 00:02:15;;;;;;;18.63;16.75;;;;;;;;;;4930693;29;20475;-75
2023/08/17 00:04:40;;;;;;;18.27;16.58;;;;;;;;;;4957958;28;20117;-74
2023/08/17 00:07:06;;;;;;;17.80;16.23;;;;;;;;;;4914245;29;20043;-75
2023/08/17 00:09:32;;;;;;;19.02;17.13;;;;;;;;;;4932587;29;20039;-75
2023/08/17 00:11:58;;;;;;;17.58;15.98;;;;;;;;;;4950185;28;20031;-75
2023/08/17 00:14:24;;;;;;;18.08;16.42;;;;;;;;;;4956603;28;20031;-74
2023/08/17 00:16:50;;;;;;;19.23;17.33;;;;;;;;;;4931676;28;20043;-75
2023/08/17 00:19:16;;;;;;;18.88;17.13;;;;;;;;;;4948335;28;20043;-75
2023/08/17 00:21:41;;;;;;;18.55;16.85;;;;;;;;;;4948345;29;20043;-75
2023/08/17 00:24:07;;;;;;;18.98;16.92;;;;;;;;;;4954731;28;20716;-75
2023/08/17 00:26:33;;;;;;;18.20;16.60;;;;;;;;;;4958804;28;20043;-75
2023/08/17 00:28:59;;;;;;;17.45;16.00;;;;;;;;;;4912413;29;20051;-75
2023/08/17 00:31:24;;;;;;;17.63;16.02;;;;;;;;;;4939558;28;20106;-74
2023/08/17 00:33:50;;;;;;;16.73;15.43;;;;;;;;;;4912833;29;20049;-74
2023/08/17 00:36:16;;;;;;;17.80;16.40;;;;;;;;;;4946971;29;20042;-74
2023/08/17 00:38:41;;;;;;;18.35;16.63;;;;;;;;;;4932213;28;20458;-74
2023/08/17 00:41:07;;;;;;;18.52;16.83;;;;;;;;;;4936608;28;20046;-75
2023/08/17 00:43:32;;;;;;;17.88;16.48;;;;;;;;;;4931783;28;20058;-74
2023/08/17 00:45:58;;;;;;;19.27;17.45;;;;;;;;;;4942829;28;20053;-74
2023/08/17 00:48:24;;;;;;;19.73;17.95;;;;;;;;;;4952968;28;20413;-75
2023/08/17 00:50:52;;;;;;;19.42;17.73;;;;;;;;;;4948577;28;20042;-74
2023/08/17 00:53:19;;;;;;;20.20;18.38;;;;;;;;;;4930121;29;20043;-75
2023/08/17 00:55:44;;;;;;;19.48;17.67;;;;;;;;;;4952520;28;20034;-74
2023/08/17 00:58:10;;;;;;;16.48;15.18;;;;;;;;;;4946222;28;20039;-74
2023/08/17 01:00:35;;;;;;;17.88;16.25;;;;;;;;;;4933515;28;20039;-75
2023/08/17 01:03:03;;;;;;;19.50;16.40;;;;;;;;;;4954327;28;20058;-75
2023/08/17 01:05:31;;;;;;;19.27;17.40;;;;;;;;;;4934092;28;20058;-74
2023/08/17 01:07:56;;;;;;;19.67;17.67;;;;;;;;;;4945087;28;20066;-75
2023/08/17 01:10:22;;;;;;;19.20;17.38;;;;;;;;;;4953862;28;20071;-75
2023/08/17 01:12:50;;;;;;;22.35;20.13;;;;;;;;;;4954585;28;20066;-75
2023/08/17 01:15:21;;;;;;;32.83;25.20;;;;;;;;;;4942512;28;20366;-75
2023/08/17 01:18:00;;;;;;;28.13;23.95;;;;;;;;;;4941577;28;20038;-74
2023/08/17 01:20:26;;;;;;;29.05;22.95;;;;;;;;;;4930000;29;20110;-75
2023/08/17 01:22:56;;;;;;;24.65;21.95;;;;;;;;;;4945738;29;20137;-75
2023/08/17 01:25:22;;;;;;;23.33;20.20;;;;;;;;;;4946259;28;20039;-75
2023/08/17 01:27:48;;;;;;;24.92;22.42;;;;;;;;;;4947711;28;20494;-75
2023/08/17 01:30:17;;;;;;;28.50;22.20;;;;;;;;;;4928519;29;20042;-75
2023/08/17 01:32:47;;;;;;;24.02;19.55;;;;;;;;;;4957405;28;20030;-75
2023/08/17 01:35:19;;;;;;;21.10;19.02;;;;;;;;;;4939201;28;20036;-75
2023/08/17 01:37:49;;;;;;;23.50;20.77;;;;;;;;;;4945735;29;20398;-75
2023/08/17 01:40:16;;;;;;;23.65;21.23;;;;;;;;;;4923810;29;20039;-74
2023/08/17 01:42:43;;;;;;;26.37;22.97;;;;;;;;;;4938303;28;20102;-74
2023/08/17 01:45:09;;;;;;;28.02;24.48;;;;;;;;;;4934050;28;20043;-75
2023/08/17 01:47:35;;;;;;;29.40;24.10;;;;;;;;;;4959547;28;20437;-75
2023/08/17 01:50:00;;;;;;;26.35;23.23;;;;;;;;;;4947949;28;20066;-74
2023/08/17 01:52:27;;;;;;;26.00;23.08;;;;;;;;;;4945016;28;20039;-75
2023/08/17 01:54:53;;;;;;;25.42;22.80;;;;;;;;;;4936689;28;20039;-75
2023/08/17 01:57:19;;;;;;;28.63;24.50;;;;;;;;;;4934836;29;20398;-75
2023/08/17 01:59:44;;;;;;;27.35;22.73;;;;;;;;;;4913521;29;20101;-75
2023/08/17 02:02:11;;;;;;;33.83;25.23;;;;;;;;;;4944964;28;20047;-75
2023/08/17 02:04:37;;;;;;;37.30;25.60;;;;;;;;;;4943821;28;20043;-74
2023/08/17 02:07:03;;;;;;;34.03;25.00;;;;;;;;;;4956815;28;20035;-75
2023/08/17 02:09:29;;;;;;;36.03;25.92;;;;;;;;;;4954345;28;20039;-75
2023/08/17 02:11:54;;;;;;;30.35;25.58;;;;;;;;;;4939181;28;20086;-75
2023/08/17 02:14:20;;;;;;;39.90;27.80;;;;;;;;;;4941241;28;20106;-75
2023/08/17 02:16:46;;;;;;;44.28;30.50;;;;;;;;;;4943981;29;20035;-75
2023/08/17 02:19:11;;;;;;;50.45;30.40;;;;;;;;;;4950096;28;20039;-74
2023/08/17 02:21:37;;;;;;;44.47;30.88;;;;;;;;;;4950450;28;20414;-75
2023/08/17 02:24:02;;;;;;;44.30;28.85;;;;;;;;;;4915673;29;20086;-75
2023/08/17 02:26:30;;;;;;;54.83;32.45;;;;;;;;;;4951011;28;20041;-75
2023/08/17 02:28:55;;;;;;;60.22;35.17;;;;;;;;;;4942840;29;20039;-75
2023/08/17 02:31:23;;;;;;;56.50;33.60;;;;;;;;;;4931924;29;20511;-74
2023/08/17 02:33:49;;;;;;;51.17;35.33;;;;;;;;;;4948192;28;20074;-75
2023/08/17 02:36:15;;;;;;;47.58;31.33;;;;;;;;;;4949783;29;20031;-75
2023/08/17 02:38:40;;;;;;;51.78;32.92;;;;;;;;;;4935190;29;20047;-75
2023/08/17 02:41:06;;;;;;;41.83;31.13;;;;;;;;;;4949406;28;20043;-74
2023/08/17 02:43:31;;;;;;;41.70;30.17;;;;;;;;;;4933227;29;20039;-75
2023/08/17 02:45:59;;;;;;;36.05;28.23;;;;;;;;;;4959331;28;20034;-75
2023/08/17 02:48:26;;;;;;;35.28;27.08;;;;;;;;;;4927211;28;20054;-75
2023/08/17 02:50:51;;;;;;;32.05;21.02;;;;;;;;;;4936070;29;20090;-75
2023/08/17 02:53:17;;;;;;;27.00;20.77;;;;;;;;;;4927665;28;20061;-74
2023/08/17 02:55:43;;;;;;;21.55;19.35;;;;;;;;;;4956492;28;20438;-74
2023/08/17 02:58:09;;;;;;;21.02;19.02;;;;;;;;;;4927676;28;20410;-75
2023/08/17 03:00:34;;;;;;;20.77;18.75;;;;;;;;;;4936767;29;20035;-75
2023/08/17 03:03:00;;;;;;;20.63;18.45;;;;;;;;;;4945273;28;20055;-75
2023/08/17 03:05:25;;;;;;;22.13;18.60;;;;;;;;;;4929410;28;20075;-75
2023/08/17 03:07:51;;;;;;;20.55;18.20;;;;;;;;;;4952571;28;20607;-74
2023/08/17 03:10:16;;;;;;;20.83;18.92;;;;;;;;;;4955799;28;20054;-74
2023/08/17 03:12:42;;;;;;;20.40;18.38;;;;;;;;;;4938044;28;20088;-75
2023/08/17 03:15:08;;;;;;;21.48;19.08;;;;;;;;;;4954898;28;20094;-75
2023/08/17 03:17:35;;;;;;;21.42;17.73;;;;;;;;;;4933266;28;20042;-75
2023/08/17 03:20:00;;;;;;;21.58;19.58;;;;;;;;;;4934236;28;20113;-75
2023/08/17 03:22:26;;;;;;;20.95;18.73;;;;;;;;;;4942245;28;20066;-75
2023/08/17 03:24:55;;;;;;;20.83;18.55;;;;;;;;;;4929715;29;20047;-75
2023/08/17 03:27:20;;;;;;;22.73;19.23;;;;;;;;;;4953265;28;20039;-74
2023/08/17 03:29:46;;;;;;;21.08;19.10;;;;;;;;;;4955616;28;20035;-75
2023/08/17 03:32:11;;;;;;;20.48;17.85;;;;;;;;;;4934548;28;20090;-74
2023/08/17 03:34:37;;;;;;;19.48;17.60;;;;;;;;;;4928686;29;20107;-74
2023/08/17 03:37:05;;;;;;;20.10;18.13;;;;;;;;;;4941495;28;20043;-75
2023/08/17 03:39:31;;;;;;;20.37;17.87;;;;;;;;;;4938652;28;20074;-75
2023/08/17 03:41:56;;;;;;;19.55;17.63;;;;;;;;;;4946567;29;20326;-75
2023/08/17 03:44:22;;;;;;;20.13;18.10;;;;;;;;;;4931307;29;20043;-75
2023/08/17 03:46:48;;;;;;;20.75;18.67;;;;;;;;;;4932934;28;20474;-75
2023/08/17 03:49:14;;;;;;;21.50;19.30;;;;;;;;;;4926976;28;20030;-74
2023/08/17 03:51:40;;;;;;;19.65;17.60;;;;;;;;;;4928098;29;20098;-74
2023/08/17 03:54:06;;;;;;;20.50;17.80;;;;;;;;;;4945609;28;20039;-75
2023/08/17 03:56:31;;;;;;;21.20;18.55;;;;;;;;;;4915335;28;20047;-74
2023/08/17 03:58:57;;;;;;;21.17;19.08;;;;;;;;;;4929317;29;20596;-75
2023/08/17 04:01:22;;;;;;;22.08;19.70;;;;;;;;;;4934825;29;20687;-71
2023/08/17 04:03:49;;;;;;;22.23;20.00;;;;;;;;;;4929147;29;20098;-72
2023/08/17 04:06:14;;;;;;;24.73;22.02;;;;;;;;;;4929496;29;20575;-72
2023/08/17 04:08:41;;;;;;;27.50;23.30;;;;;;;;;;4936609;28;20030;-72
2023/08/17 04:11:07;;;;;;;28.77;25.33;;;;;;;;;;4958162;28;20679;-72
2023/08/17 04:13:32;;;;;;;27.98;24.95;;;;;;;;;;4945049;28;20490;-71
2023/08/17 04:15:58;;;;;;;31.25;25.52;;;;;;;;;;4946416;29;20045;-72
2023/08/17 04:18:24;;;;;;;28.50;25.15;;;;;;;;;;4952141;28;20030;-71
2023/08/17 04:20:50;;;;;;;31.15;25.42;;;;;;;;;;4928930;29;20218;-72
2023/08/17 04:23:16;;;;;;;23.90;20.52;;;;;;;;;;4930562;29;20062;-71
2023/08/17 04:25:43;;;;;;;20.23;16.80;;;;;;;;;;4946041;29;20525;-72
2023/08/17 04:28:09;;;;;;;19.10;17.20;;;;;;;;;;4944667;28;20043;-72
2023/08/17 04:30:34;;;;;;;20.00;17.98;;;;;;;;;;4947632;28;20051;-71
2023/08/17 04:33:02;;;;;;;22.33;19.98;;;;;;;;;;4938855;28;20089;-71
2023/08/17 04:35:27;;;;;;;20.38;18.58;;;;;;;;;;4938232;28;20038;-71
2023/08/17 04:37:53;;;;;;;21.08;18.92;;;;;;;;;;4931139;28;20046;-72
2023/08/17 04:40:19;;;;;;;20.45;18.27;;;;;;;;;;4944658;29;20114;-71
2023/08/17 04:42:44;;;;;;;21.05;19.10;;;;;;;;;;4928434;29;20369;-71
2023/08/17 04:45:10;;;;;;;21.77;19.65;;;;;;;;;;4926295;29;20612;-72
2023/08/17 04:47:39;;;;;;;;;;;;;;;;;;4943017;29;20074;-72
2023/08/17 04:50:06;;;;;;;22.33;20.15;;;;;;;;;;4947846;28;19939;-72
2023/08/17 04:52:33;;;;;;;27.58;21.10;;;;;;;;;;4928052;28;20530;-72
2023/08/17 04:54:59;;;;;;;23.15;20.83;;;;;;;;;;4932038;28;20122;-71
2023/08/17 04:57:26;;;;;;;22.73;20.55;;;;;;;;;;4933024;28;20032;-71
2023/08/17 04:59:51;;;;;;;21.15;19.08;;;;;;;;;;4954713;28;20059;-72
2023/08/17 05:02:17;;;;;;;21.10;19.08;;;;;;;;;;4947761;28;20066;-71
2023/08/17 05:04:43;;;;;;;20.88;18.65;;;;;;;;;;4934203;28;20499;-72
2023/08/17 05:07:09;;;;;;;23.48;21.08;;;;;;;;;;4932276;28;20039;-72
2023/08/17 05:09:35;;;;;;;24.17;21.75;;;;;;;;;;4926263;29;20814;-72
2023/08/17 05:12:01;;;;;;;24.30;21.70;;;;;;;;;;4935939;28;20078;-72
2023/08/17 05:14:26;;;;;;;24.05;21.45;;;;;;;;;;4931032;28;20410;-74
2023/08/17 05:16:53;;;;;;;22.63;20.42;;;;;;;;;;4936054;28;20435;-74
2023/08/17 05:19:18;;;;;;;24.73;21.98;;;;;;;;;;4951783;28;20503;-74
2023/08/17 05:21:44;;;;;;;23.70;21.30;;;;;;;;;;4935039;28;20169;-74
2023/08/17 05:24:10;;;;;;;26.27;22.52;;;;;;;;;;4922016;28;20034;-74
2023/08/17 05:26:35;;;;;;;25.33;22.65;;;;;;;;;;4940019;28;20605;-74
2023/08/17 05:29:01;;;;;;;24.67;22.17;;;;;;;;;;4935299;28;20050;-74
2023/08/17 05:31:26;;;;;;;24.00;21.17;;;;;;;;;;4950195;28;20122;-74
2023/08/17 05:33:53;;;;;;;22.70;20.63;;;;;;;;;;4929769;29;20042;-74
2023/08/17 05:36:21;;;;;;;26.45;22.70;;;;;;;;;;4934425;29;20043;-74
2023/08/17 05:38:47;;;;;;;24.83;22.15;;;;;;;;;;4953259;28;20256;-74
2023/08/17 05:41:12;;;;;;;24.98;22.25;;;;;;;;;;4955162;28;20039;-74
2023/08/17 05:43:38;;;;;;;25.48;22.55;;;;;;;;;;4919550;28;20054;-74
2023/08/17 05:46:04;;;;;;;24.08;21.55;;;;;;;;;;4953845;28;20077;-74
2023/08/17 05:48:30;;;;;;;24.95;22.35;;;;;;;;;;4947936;28;20110;-74
2023/08/17 05:50:56;;;;;;;27.15;24.27;;;;;;;;;;4929137;28;20043;-74
2023/08/17 05:53:22;;;;;;;31.38;26.33;;;;;;;;;;4962180;28;20030;-74
2023/08/17 05:55:47;;;;;;;28.33;25.33;;;;;;;;;;4952484;28;20578;-74
2023/08/17 05:58:13;;;;;;;28.10;25.08;;;;;;;;;;4932965;28;20043;-74
2023/08/17 06:00:38;;;;;;;28.58;25.58;;;;;;;;;;4949246;28;20433;-74
2023/08/17 06:03:04;;;;;;;28.45;25.25;;;;;;;;;;4934556;28;20035;-74
2023/08/17 06:05:30;;;;;;;30.15;25.83;;;;;;;;;;4957067;28;20074;-74
2023/08/17 06:07:56;;;;;;;28.50;25.38;;;;;;;;;;4963259;28;20069;-74
2023/08/17 06:10:26;;;;;;;25.92;22.45;;;;;;;;;;4957469;28;20039;-74
2023/08/17 06:12:55;;;;;;;29.08;25.95;;;;;;;;;;4951365;28;20062;-74
2023/08/17 06:15:22;;;;;;;28.73;25.60;;;;;;;;;;4954421;28;20546;-74
2023/08/17 06:17:49;;;;;;;35.25;26.15;;;;;;;;;;4938160;28;21012;-74
2023/08/17 06:20:16;;;;;;;33.90;27.45;;;;;;;;;;4936979;29;20050;-74
2023/08/17 06:22:42;;;;;;;33.00;27.05;;;;;;;;;;4953175;28;20039;-74
2023/08/17 06:25:08;;;;;;;34.95;28.67;;;;;;;;;;4923711;28;20058;-74
2023/08/17 06:27:35;;;;;;;33.60;27.77;;;;;;;;;;4955404;28;20054;-74
2023/08/17 06:30:02;;;;;;;35.28;28.55;;;;;;;;;;4952790;28;20194;-74
2023/08/17 06:32:29;;;;;;;36.65;29.70;;;;;;;;;;4964880;28;20051;-74
2023/08/17 06:34:54;;;;;;;31.02;25.52;;;;;;;;;;4966503;28;20256;-74
2023/08/17 06:37:20;;;;;;;31.42;26.35;;;;;;;;;;4959469;28;20082;-74
2023/08/17 06:39:45;;;;;;;33.08;28.75;;;;;;;;;;4935916;29;20082;-74
2023/08/17 06:42:11;;;;;;;27.77;24.85;;;;;;;;;;4949684;28;20388;-74
2023/08/17 06:44:37;;;;;;;33.35;26.55;;;;;;;;;;4949571;28;20106;-74
2023/08/17 06:47:03;;;;;;;28.35;25.40;;;;;;;;;;4936209;29;20042;-74
2023/08/17 06:49:28;;;;;;;28.80;25.70;;;;;;;;;;4960758;28;20089;-74
2023/08/17 06:51:54;;;;;;;30.67;27.35;;;;;;;;;;4957475;28;20035;-74
2023/08/17 06:54:19;;;;;;;34.80;27.15;;;;;;;;;;4924784;28;20046;-74
2023/08/17 06:56:45;;;;;;;31.17;27.88;;;;;;;;;;4940451;28;20043;-74
2023/08/17 06:59:11;;;;;;;29.40;25.90;;;;;;;;;;4923807;29;20050;-74
2023/08/17 07:01:36;;;;;;;34.80;26.38;;;;;;;;;;4933736;29;20039;-74
2023/08/17 07:04:02;;;;;;;32.33;26.50;;;;;;;;;;4916873;28;20491;-74
2023/08/17 07:06:28;;;;;;;29.70;26.42;;;;;;;;;;4957831;28;20042;-73
2023/08/17 07:08:54;;;;;;;33.67;26.80;;;;;;;;;;4959048;28;20043;-73
2023/08/17 07:11:20;;;;;;;36.85;25.40;;;;;;;;;;4953457;28;20442;-74
2023/08/17 07:13:46;;;;;;;30.63;25.15;;;;;;;;;;4952657;28;20317;-73
2023/08/17 07:16:11;;;;;;;31.15;26.10;;;;;;;;;;4948420;28;20448;-74
2023/08/17 07:18:37;;;;;;;32.70;25.80;;;;;;;;;;4938222;28;20046;-74
2023/08/17 07:21:03;;;;;;;28.45;25.10;;;;;;;;;;4953962;28;20502;-74
2023/08/17 07:23:28;;;;;;;31.05;25.55;;;;;;;;;;4929620;28;20384;-76
2023/08/17 07:25:54;;;;;;;28.08;24.63;;;;;;;;;;4934104;28;20364;-74
2023/08/17 07:28:19;;;;;;;28.08;24.98;;;;;;;;;;4948979;28;20040;-74
2023/08/17 07:30:45;;;;;;;28.38;25.45;;;;;;;;;;4934569;28;20376;-74
2023/08/17 07:33:10;;;;;;;29.75;24.40;;;;;;;;;;4954359;28;20558;-74
2023/08/17 07:35:36;;;;;;;27.90;23.77;;;;;;;;;;4954613;28;20437;-74
2023/08/17 07:38:01;;;;;;;29.25;23.60;;;;;;;;;;4949322;28;20413;-74
2023/08/17 07:40:27;;;;;;;26.05;22.92;;;;;;;;;;4950674;28;20486;-74
2023/08/17 07:42:52;;;;;;;24.50;22.00;;;;;;;;;;4951780;28;20090;-74
2023/08/17 07:45:18;;;;;;;23.67;21.20;;;;;;;;;;4946168;28;20027;-74
2023/08/17 07:47:44;;;;;;;28.38;22.63;;;;;;;;;;4947192;28;20126;-74
2023/08/17 07:50:09;;;;;;;24.98;22.33;;;;;;;;;;4960359;28;20035;-75
2023/08/17 07:52:35;;;;;;;26.55;22.95;;;;;;;;;;4958542;28;20085;-75
2023/08/17 07:55:00;;;;;;;25.92;22.83;;;;;;;;;;4950519;28;20118;-74
2023/08/17 07:57:26;;;;;;;25.50;22.88;;;;;;;;;;4939817;28;20083;-75
2023/08/17 07:59:53;;;;;;;23.90;21.48;;;;;;;;;;4945301;28;20043;-74
2023/08/17 08:02:19;;;;;;;25.58;21.02;;;;;;;;;;4942854;28;20046;-74
2023/08/17 08:04:45;;;;;;;23.27;21.00;;;;;;;;;;4950323;28;20031;-74
2023/08/17 08:07:10;;;;;;;24.25;21.77;;;;;;;;;;4945277;29;20023;-74
2023/08/17 08:09:36;;;;;;;22.88;20.60;;;;;;;;;;4932801;29;20380;-74
2023/08/17 08:12:02;;;;;;;22.50;20.15;;;;;;;;;;4947970;28;20118;-75
2023/08/17 08:14:28;;;;;;;21.65;19.58;;;;;;;;;;4946806;28;20371;-75
2023/08/17 08:16:53;;;;;;;21.10;18.92;;;;;;;;;;4922372;28;20038;-75
2023/08/17 08:19:19;;;;;;;22.88;19.95;;;;;;;;;;4933904;29;20503;-75
2023/08/17 08:21:44;;;;;;;19.83;18.02;;;;;;;;;;4947057;28;20550;-74
2023/08/17 08:24:10;;;;;;;21.77;19.60;;;;;;;;;;4952445;28;20302;-75
2023/08/17 08:26:36;;;;;;;22.20;18.92;;;;;;;;;;4950916;28;20043;-75
2023/08/17 08:29:01;;;;;;;20.45;18.35;;;;;;;;;;4952636;28;20407;-75
2023/08/17 08:31:27;;;;;;;19.92;18.05;;;;;;;;;;4957796;28;20046;-75
2023/08/17 08:33:52;;;;;;;20.88;18.88;;;;;;;;;;4954513;28;20122;-74
2023/08/17 08:36:18;;;;;;;21.63;19.42;;;;;;;;;;4954840;28;20031;-75
2023/08/17 08:38:44;;;;;;;21.70;19.60;;;;;;;;;;4941287;28;20039;-75
2023/08/17 08:41:11;;;;;;;20.40;18.50;;;;;;;;;;4935621;29;20153;-75
2023/08/17 08:43:38;;;;;;;22.05;19.95;;;;;;;;;;4948623;28;20043;-75
2023/08/17 08:46:04;;;;;;;22.83;20.55;;;;;;;;;;4950042;28;20106;-74
2023/08/17 08:48:31;;;;;;;20.42;18.25;;;;;;;;;;4960536;28;20074;-75
2023/08/17 08:51:00;;;;;;;20.25;18.45;;;;;;;;;;4954678;28;20558;-75
2023/08/17 08:53:44;;;;;;;19.70;17.70;;;;;;;;;;4941876;28;20041;-75
2023/08/17 08:56:14;;;;;;;20.17;18.17;;;;;;;;;;4950375;28;20138;-75
2023/08/17 08:58:41;;;;;;;20.67;18.38;;;;;;;;;;4939682;28;20108;-75
2023/08/17 09:01:10;;;;;;;19.58;17.88;;;;;;;;;;4930501;29;20089;-75
2023/08/17 09:03:36;;;;;;;;;;;;;;;;;;4914689;28;20470;-75
2023/08/17 09:06:03;;;;;;;20.33;17.77;;;;;;;;;;4949200;28;19929;-75
2023/08/17 09:08:30;;;;;;;19.52;17.52;;;;;;;;;;4953490;28;20154;-74
2023/08/17 09:10:56;;;;;;;18.13;16.20;;;;;;;;;;4947325;28;20035;-76
2023/08/17 09:13:22;;;;;;;19.77;17.33;;;;;;;;;;4928323;29;20066;-75
2023/08/17 09:15:48;;;;;;;17.67;16.08;;;;;;;;;;4922879;28;20105;-75
2023/08/17 09:18:15;;;;;;;17.40;15.63;;;;;;;;;;4951027;28;20043;-75
2023/08/17 09:20:44;;;;;;;18.70;16.75;;;;;;;;;;4956272;28;20049;-75
2023/08/17 09:23:15;;;;;;;17.65;16.05;;;;;;;;;;4961272;28;20387;-75
2023/08/17 09:25:43;;;;;;;17.20;15.50;;;;;;;;;;4960826;28;20054;-75
2023/08/17 09:28:10;;;;;;;17.75;15.85;;;;;;;;;;4924320;29;20043;-75
2023/08/17 09:30:58;;;;;;;17.55;15.95;;;;;;;;;;4955136;28;20170;-74
2023/08/17 09:33:29;;;;;;;17.20;15.52;;;;;;;;;;4956486;28;20047;-75
2023/08/17 09:35:55;;;;;;;17.80;16.13;;;;;;;;;;4934159;29;20524;-75
2023/08/17 09:38:21;;;;;;;18.90;16.65;;;;;;;;;;4953718;28;20031;-75
2023/08/17 09:40:47;;;;;;;18.00;16.33;;;;;;;;;;4934234;29;20035;-75
2023/08/17 09:43:17;;;;;;;17.60;15.75;;;;;;;;;;4917614;29;20035;-75
2023/08/17 09:45:47;;;;;;;15.35;13.93;;;;;;;;;;4951362;28;20035;-75
2023/08/17 09:48:17;;;;;;;16.35;14.85;;;;;;;;;;4963233;28;20042;-75
2023/08/17 09:50:43;;;;;;;15.48;14.13;;;;;;;;;;4953480;28;20062;-75
2023/08/17 09:53:19;;;;;;;16.02;13.73;;;;;;;;;;4937258;28;20046;-74
2023/08/17 09:55:46;;;;;;;16.40;14.73;;;;;;;;;;4943271;28;20070;-75
2023/08/17 09:58:15;;;;;;;16.67;15.07;;;;;;;;;;4951005;28;20051;-74
2023/08/17 10:00:49;;;;;;;16.35;14.82;;;;;;;;;;4932478;29;20470;-75
2023/08/17 10:03:15;;;;;;;16.63;13.90;;;;;;;;;;4954561;28;20049;-75
2023/08/17 10:05:43;;;;;;;16.58;14.20;;;;;;;;;;4934880;29;20129;-75
2023/08/17 10:08:11;;;;;;;15.10;13.60;;;;;;;;;;4935140;28;20059;-75
2023/08/17 10:10:41;;;;;;;15.68;13.82;;;;;;;;;;4940298;28;20039;-75
2023/08/17 10:13:07;;;;;;;14.07;12.65;;;;;;;;;;4960016;28;20713;-75
2023/08/17 10:15:48;;;;;;;14.60;13.30;;;;;;;;;;4950856;28;20050;-75
2023/08/17 10:18:38;;;;;;;13.88;12.32;;;;;;;;;;4969239;28;20041;-75
2023/08/17 10:21:13;;;;;;;12.82;11.50;;;;;;;;;;4953640;28;20122;-76
2023/08/17 10:23:39;;;;;;;13.55;12.15;;;;;;;;;;4949247;29;20493;-75
2023/08/17 10:26:07;;;;;;;13.98;12.32;;;;;;;;;;4948376;29;20125;-74
2023/08/17 10:28:34;;;;;;;12.50;11.32;;;;;;;;;;4935193;28;20126;-75
2023/08/17 10:30:59;;;;;;;14.18;12.82;;;;;;;;;;4962752;28;20031;-75
2023/08/17 10:33:26;;;;;;;11.98;10.98;;;;;;;;;;4960551;28;20090;-75
2023/08/17 10:35:52;;;;;;;14.30;12.88;;;;;;;;;;4939351;28;20031;-75
2023/08/17 10:38:18;;;;;;;13.50;12.20;;;;;;;;;;4932909;28;20035;-75
2023/08/17 10:40:43;;;;;;;14.18;12.20;;;;;;;;;;4940248;29;20046;-74
2023/08/17 10:43:11;;;;;;;11.77;10.88;;;;;;;;;;4936158;28;20090;-74
2023/08/17 10:45:38;;;;;;;12.10;11.00;;;;;;;;;;4939630;28;20065;-74
2023/08/17 10:48:06;;;;;;;12.30;11.07;;;;;;;;;;4948511;28;20450;-74
2023/08/17 10:50:35;;;;;;;;;;;;;;;;;;4951631;28;20118;-74
2023/08/17 10:53:08;;;;;;;12.60;11.50;;;;;;;;;;4968672;28;20305;-74
2023/08/17 10:55:40;;;;;;;12.15;10.00;;;;;;;;;;4958439;28;20459;-74
2023/08/17 11:00:45;;;;;;;11.50;10.38;;;;;;;;;;5063998;28;20413;-73
2023/08/17 11:03:23;;;;;;;12.10;10.88;;;;;;;;;;5061621;28;20127;-73
2023/08/17 11:05:58;;;;;;;11.30;10.30;;;;;;;;;;5041559;28;20499;-73
2023/08/17 11:08:38;;;;;;;11.80;10.70;;;;;;;;;;5043173;28;20041;-74
2023/08/17 11:11:12;;;;;;;11.32;10.43;;;;;;;;;;5023257;28;20034;-74
2023/08/17 11:13:40;;;;;;;12.00;10.98;;;;;;;;;;5038378;28;20543;-74
2023/08/17 11:16:07;;;;;;;11.82;9.50;;;;;;;;;;5039647;28;20106;-74
2023/08/17 11:18:33;;;;;;;11.20;10.18;;;;;;;;;;5040574;28;20103;-74
2023/08/17 11:21:03;;;;;;;10.75;9.85;;;;;;;;;;5041544;28;20053;-74
2023/08/17 11:23:30;;;;;;;10.82;9.93;;;;;;;;;;5039177;28;20091;-74
2023/08/17 11:25:56;;;;;;;11.20;9.85;;;;;;;;;;5041209;28;20447;-74
2023/08/17 11:28:23;;;;;;;10.40;9.45;;;;;;;;;;5038996;28;20155;-74
2023/08/17 11:31:08;;;;;;;11.00;10.02;;;;;;;;;;5040654;28;20060;-74
2023/08/17 11:33:36;;;;;;;10.55;9.68;;;;;;;;;;5039149;28;20052;-73
2023/08/17 11:36:06;;;;;;;10.98;9.95;;;;;;;;;;5040404;28;20464;-74
2023/08/17 11:38:40;;;;;;;10.73;9.80;;;;;;;;;;5039964;28;20622;-73
2023/08/17 11:41:08;;;;;;;9.80;8.90;;;;;;;;;;5041068;28;20045;-73
2023/08/17 11:43:34;;;;;;;10.18;9.15;;;;;;;;;;5038972;28;20045;-73
2023/08/17 11:46:01;;;;;;;10.30;9.40;;;;;;;;;;5039304;28;20091;-73
2023/08/17 11:48:27;;;;;;;10.10;9.30;;;;;;;;;;5039480;28;20037;-73
2023/08/17 11:50:54;;;;;;;10.05;9.15;;;;;;;;;;5037669;28;20033;-73
2023/08/17 11:53:24;;;;;;;10.00;9.18;;;;;;;;;;5039572;28;20041;-73
2023/08/17 11:55:53;;;;;;;11.13;10.02;;;;;;;;;;5043219;28;20868;-73
2023/08/17 11:58:48;;;;;;;10.73;9.70;;;;;;;;;;5035131;28;20037;-74
2023/08/17 12:01:25;;;;;;;11.18;10.13;;;;;;;;;;5039251;28;20427;-73
2023/08/17 12:03:55;;;;;;;11.18;10.38;;;;;;;;;;5038840;28;20037;-73
2023/08/17 12:06:22;;;;;;;11.55;10.50;;;;;;;;;;5038395;28;20040;-73
2023/08/17 12:08:59;;;;;;;11.20;10.30;;;;;;;;;;5036236;28;20017;-73
2023/08/17 12:11:29;;;;;;;11.93;10.77;;;;;;;;;;5030267;28;20037;-73
2023/08/17 12:14:10;;;;;;;12.27;11.27;;;;;;;;;;5024079;28;20520;-73
2023/08/17 12:16:50;;;;;;;12.30;11.00;;;;;;;;;;5021147;28;20064;-73
2023/08/17 12:19:24;;;;;;;12.57;11.68;;;;;;;;;;5023675;28;20029;-73
2023/08/17 12:21:51;;;;;;;13.38;12.27;;;;;;;;;;5022942;28;20505;-73
2023/08/17 12:24:24;;;;;;;12.45;11.45;;;;;;;;;;5024344;28;20327;-73
2023/08/17 12:26:56;;;;;;;12.88;11.98;;;;;;;;;;5019826;28;20449;-73
2023/08/17 12:29:42;;;;;;;14.15;12.85;;;;;;;;;;5020562;28;20341;-73
2023/08/17 12:32:13;;;;;;;12.80;11.57;;;;;;;;;;5022702;28;20037;-73
2023/08/17 12:34:41;;;;;;;13.50;12.30;;;;;;;;;;5020969;28;20041;-73
2023/08/17 12:37:19;;;;;;;13.30;12.27;;;;;;;;;;5020765;28;20371;-73
2023/08/17 12:39:48;;;;;;;13.88;12.68;;;;;;;;;;5022251;28;20396;-74
2023/08/17 12:42:22;;;;;;;13.88;12.65;;;;;;;;;;5018314;28;20595;-73
2023/08/17 12:44:56;;;;;;;14.57;13.30;;;;;;;;;;5023998;28;20603;-73
2023/08/17 12:47:27;;;;;;;14.23;13.02;;;;;;;;;;5025260;28;20026;-73
2023/08/17 12:50:04;;;;;;;14.23;12.77;;;;;;;;;;5024484;28;20555;-73
2023/08/17 12:52:37;;;;;;;13.82;12.63;;;;;;;;;;5023887;28;20132;-73
2023/08/17 12:55:08;;;;;;;15.02;13.38;;;;;;;;;;5025207;28;20128;-73
2023/08/17 12:57:58;;;;;;;14.43;13.25;;;;;;;;;;5024303;28;20132;-73
2023/08/17 13:00:28;;;;;;;15.40;14.10;;;;;;;;;;5024336;28;20045;-73
2023/08/17 13:03:01;;;;;;;15.25;13.75;;;;;;;;;;5022600;28;20037;-73
2023/08/17 13:05:32;;;;;;;16.00;14.35;;;;;;;;;;5024682;28;20049;-73
2023/08/17 13:08:03;;;;;;;16.10;14.70;;;;;;;;;;5024304;28;20112;-73
2023/08/17 13:10:37;;;;;;;15.80;14.55;;;;;;;;;;5023962;28;20095;-73
2023/08/17 13:13:10;;;;;;;16.00;14.63;;;;;;;;;;5025194;28;20348;-73
2023/08/17 13:15:41;;;;;;;17.88;16.27;;;;;;;;;;5022525;28;20136;-72
2023/08/17 13:18:16;;;;;;;16.17;14.57;;;;;;;;;;5007852;28;20754;-73
2023/08/17 13:20:52;;;;;;;17.33;15.82;;;;;;;;;;5024123;28;20033;-73
2023/08/17 13:23:22;;;;;;;18.17;16.23;;;;;;;;;;5019893;28;20045;-73
2023/08/17 13:25:53;;;;;;;17.13;15.77;;;;;;;;;;5024783;28;20039;-73
2023/08/17 13:28:25;;;;;;;17.13;15.35;;;;;;;;;;5023929;28;20471;-73
2023/08/17 13:31:04;;;;;;;17.38;15.88;;;;;;;;;;5024512;28;20098;-73
2023/08/17 13:33:39;;;;;;;16.35;14.95;;;;;;;;;;5023230;28;20036;-73
2023/08/17 13:36:05;;;;;;;16.48;14.95;;;;;;;;;;5024350;28;20035;-73
2023/08/17 13:38:42;;;;;;;15.77;14.40;;;;;;;;;;5021496;28;20045;-73
2023/08/17 13:41:24;;;;;;;15.27;13.85;;;;;;;;;;5033735;28;20069;-73
2023/08/17 13:43:57;;;;;;;15.20;13.82;;;;;;;;;;5023701;28;20048;-72
2023/08/17 13:46:37;;;;;;;15.18;13.95;;;;;;;;;;5024382;28;20033;-73
2023/08/17 13:49:07;;;;;;;14.90;13.52;;;;;;;;;;5022492;28;20039;-73
2023/08/17 13:51:43;;;;;;;14.73;13.25;;;;;;;;;;5023608;28;20329;-72
2023/08/17 13:54:10;;;;;;;14.40;13.10;;;;;;;;;;5022308;28;20111;-73
2023/08/17 13:56:43;;;;;;;15.68;14.48;;;;;;;;;;5023670;28;20037;-73
2023/08/17 13:59:17;;;;;;;15.63;14.15;;;;;;;;;;5024151;28;20044;-73
2023/08/17 14:01:44;;;;;;;14.60;13.45;;;;;;;;;;5017813;28;20361;-73
2023/08/17 14:04:17;;;;;;;13.93;12.82;;;;;;;;;;5021177;28;20029;-73
2023/08/17 14:06:55;;;;;;;13.98;12.70;;;;;;;;;;5022132;28;20045;-73
2023/08/17 14:09:25;;;;;;;14.95;13.60;;;;;;;;;;5024808;28;20414;-73
2023/08/17 14:12:07;;;;;;;14.88;13.55;;;;;;;;;;5021712;28;20037;-73
2023/08/17 14:14:38;;;;;;;14.63;13.40;;;;;;;;;;5024135;28;20051;-73
2023/08/17 14:17:09;;;;;;;14.73;13.52;;;;;;;;;;5017369;28;21034;-73
2023/08/17 14:19:47;;;;;;;15.15;13.68;;;;;;;;;;5021886;28;20064;-73
2023/08/17 14:22:18;;;;;;;15.07;13.77;;;;;;;;;;5019503;28;20048;-73
2023/08/17 14:24:50;;;;;;;14.73;13.52;;;;;;;;;;5023923;28;20128;-73
2023/08/17 14:27:20;;;;;;;14.98;13.60;;;;;;;;;;5024131;28;20037;-73